createdAt,value
2022-10-11T00:00:55.183Z,95.55
2022-10-11T00:03:22.671Z,95.94
2022-10-11T00:05:50.059Z,95.79
2022-10-11T00:08:17.429Z,95.55
2022-10-11T00:10:44.932Z,95.38
2022-10-11T00:13:12.357Z,95.09
2022-10-11T00:15:40.855Z,95.19
2022-10-11T00:18:09.207Z,95.86
2022-10-11T00:20:36.631Z,96.07
2022-10-11T00:23:04.979Z,96.03
2022-10-11T00:25:33.058Z,96.07
2022-10-11T00:28:00.462Z,95.75
2022-10-11T00:30:28.065Z,96.29
2022-10-11T00:32:55.895Z,96.08
2022-10-11T00:35:23.261Z,96.14
2022-10-11T00:37:50.653Z,96.19
2022-10-11T00:40:21.157Z,95.86
2022-10-11T00:42:49.551Z,95.99
2022-10-11T00:45:39.643Z,96.20
2022-10-11T00:48:27.476Z,96.38
2022-10-11T00:50:58.534Z,96.43
2022-10-11T00:53:30.390Z,96.62
2022-10-11T00:56:07.244Z,96.25
2022-10-11T00:58:36.977Z,96.56
2022-10-11T01:01:05.170Z,96.81
2022-10-11T01:03:35.981Z,96.54
2022-10-11T01:06:04.360Z,96.51
2022-10-11T01:08:34.129Z,96.89
2022-10-11T01:11:03.188Z,96.77
2022-10-11T01:13:52.179Z,96.76
2022-10-11T01:16:49.975Z,96.76
2022-10-11T01:19:58.952Z,97.05
2022-10-11T01:22:48.001Z,97.07
2022-10-11T01:25:26.888Z,96.98
2022-10-11T01:28:19.034Z,96.29
2022-10-11T01:30:47.287Z,96.50
2022-10-11T01:33:44.709Z,96.49
2022-10-11T01:36:32.591Z,96.34
2022-10-11T01:39:10.747Z,96.47
2022-10-11T01:41:47.458Z,96.62
2022-10-11T01:44:15.539Z,96.31
2022-10-11T01:46:43.299Z,96.23
2022-10-11T01:49:10.995Z,96.42
2022-10-11T01:51:47.498Z,95.88
2022-10-11T01:55:08.246Z,96.17
2022-10-11T01:58:30.302Z,96.12
2022-10-11T02:01:32.733Z,96.35
2022-10-11T02:04:22.428Z,95.88
2022-10-11T02:07:16.900Z,95.62
2022-10-11T02:10:11.491Z,95.54
2022-10-11T02:12:57.713Z,95.56
2022-10-11T02:15:30.967Z,95.65
2022-10-11T02:18:06.349Z,95.83
2022-10-11T02:20:37.248Z,95.68
2022-10-11T02:23:14.997Z,95.75
2022-10-11T02:25:45.101Z,96.12
2022-10-11T02:28:25.323Z,96.24
2022-10-11T02:30:55.021Z,95.89
2022-10-11T02:33:37.294Z,95.98
2022-10-11T02:36:19.515Z,95.93
2022-10-11T02:38:57.243Z,95.26
2022-10-11T02:41:38.465Z,95.76
2022-10-11T02:44:26.207Z,95.80
2022-10-11T02:46:54.800Z,96.04
2022-10-11T02:49:22.339Z,95.85
2022-10-11T02:51:49.724Z,95.95
2022-10-11T02:54:17.409Z,96.33
2022-10-11T02:56:44.765Z,95.85
2022-10-11T02:59:12.143Z,96.05
2022-10-11T03:01:39.802Z,95.82
2022-10-11T03:04:07.216Z,96.38
2022-10-11T03:06:34.755Z,96.04
2022-10-11T03:09:02.122Z,95.14
2022-10-11T03:11:29.561Z,96.34
2022-10-11T03:13:57.053Z,95.19
2022-10-11T03:16:24.511Z,95.82
2022-10-11T03:18:51.858Z,96.37
2022-10-11T03:21:19.379Z,96.16
2022-10-11T03:23:46.771Z,95.25
2022-10-11T03:26:14.141Z,95.18
2022-10-11T03:28:41.604Z,95.08
2022-10-11T03:31:09.069Z,95.51
2022-10-11T03:33:36.793Z,96.12
2022-10-11T03:36:05.035Z,95.86
2022-10-11T03:38:33.268Z,95.98
2022-10-11T03:41:00.667Z,95.94
2022-10-11T03:43:28.101Z,95.60
2022-10-11T03:45:55.622Z,95.65
2022-10-11T03:48:23.012Z,95.37
2022-10-11T03:50:50.523Z,95.51
2022-10-11T03:53:18.006Z,95.57
2022-10-11T03:55:45.460Z,95.32
2022-10-11T03:58:12.866Z,95.16
2022-10-11T04:00:40.303Z,95.65
2022-10-11T04:03:07.713Z,95.43
2022-10-11T04:05:35.125Z,94.92
2022-10-11T04:08:02.647Z,95.27
2022-10-11T04:10:31.483Z,95.28
2022-10-11T04:12:58.847Z,95.30
2022-10-11T04:15:26.246Z,95.28
2022-10-11T04:17:53.598Z,94.46
2022-10-11T04:20:20.992Z,95.11
2022-10-11T04:22:48.461Z,95.17
2022-10-11T04:25:15.918Z,95.32
2022-10-11T04:27:43.295Z,94.63
2022-10-11T04:30:11.889Z,94.52
2022-10-11T04:32:39.357Z,95.76
2022-10-11T04:35:07.127Z,95.71
2022-10-11T04:37:35.192Z,95.95
2022-10-11T04:40:03.678Z,95.79
2022-10-11T04:42:31.161Z,95.48
2022-10-11T04:44:58.652Z,96.06
2022-10-11T04:47:26.070Z,96.16
2022-10-11T04:49:53.415Z,95.59
2022-10-11T04:52:25.399Z,95.34
2022-10-11T04:54:53.307Z,95.30
2022-10-11T04:57:20.675Z,95.62
2022-10-11T04:59:50.219Z,95.42
2022-10-11T05:02:18.171Z,95.05
2022-10-11T05:04:46.695Z,95.31
2022-10-11T05:07:14.429Z,95.43
2022-10-11T05:09:41.804Z,94.89
2022-10-11T05:12:10.592Z,95.53
2022-10-11T05:14:37.990Z,95.66
2022-10-11T05:17:05.792Z,95.52
2022-10-11T05:19:34.328Z,95.07
2022-10-11T05:22:01.695Z,94.94
2022-10-11T05:24:29.063Z,95.51
2022-10-11T05:26:59.803Z,94.94
2022-10-11T05:29:30.559Z,94.71
2022-10-11T05:31:57.944Z,95.07
2022-10-11T05:34:25.413Z,95.01
2022-10-11T05:36:52.812Z,95.41
2022-10-11T05:39:20.248Z,95.52
2022-10-11T05:41:48.848Z,94.61
2022-10-11T05:44:16.340Z,95.14
2022-10-11T05:46:43.725Z,95.45
2022-10-11T05:49:12.237Z,95.53
2022-10-11T05:51:39.757Z,94.46
2022-10-11T05:54:07.134Z,95.15
2022-10-11T05:56:34.609Z,95.33
2022-10-11T05:59:02.700Z,95.71
2022-10-11T06:01:30.198Z,95.43
2022-10-11T06:03:57.769Z,95.31
2022-10-11T06:06:25.170Z,95.84
2022-10-11T06:08:52.513Z,95.64
2022-10-11T06:11:25.787Z,95.85
2022-10-11T06:13:57.918Z,95.77
2022-10-11T06:16:26.850Z,95.94
2022-10-11T06:18:56.723Z,96.07
2022-10-11T06:21:24.875Z,95.44
2022-10-11T06:23:56.809Z,96.42
2022-10-11T06:26:28.047Z,96.68
2022-10-11T06:28:56.640Z,96.31
2022-10-11T06:31:24.834Z,96.48
2022-10-11T06:33:52.405Z,95.99
2022-10-11T06:36:19.837Z,96.96
2022-10-11T06:38:47.360Z,97.06
2022-10-11T06:41:23.907Z,96.89
2022-10-11T06:43:51.890Z,97.48
2022-10-11T06:46:23.133Z,97.26
2022-10-11T06:48:51.440Z,97.78
2022-10-11T06:52:22.897Z,97.27
2022-10-11T06:54:50.587Z,97.45
2022-10-11T06:57:18.268Z,97.59
2022-10-11T06:59:45.630Z,98.00
2022-10-11T07:02:13.059Z,97.30
2022-10-11T07:04:40.441Z,97.06
2022-10-11T07:07:07.907Z,97.23
2022-10-11T07:09:35.381Z,97.53
2022-10-11T07:12:02.859Z,97.14
2022-10-11T07:14:30.262Z,97.01
2022-10-11T07:16:57.641Z,98.24
2022-10-11T07:19:26.090Z,97.58
2022-10-11T07:21:53.491Z,98.27
2022-10-11T07:24:20.905Z,98.62
2022-10-11T07:26:48.371Z,98.17
2022-10-11T07:29:16.062Z,98.29
2022-10-11T07:31:44.112Z,98.65
2022-10-11T07:34:13.076Z,99.34
2022-10-11T07:36:40.635Z,100.00
2022-10-11T07:39:08.818Z,100.00
2022-10-11T07:41:39.677Z,99.73
2022-10-11T07:44:09.354Z,100.00
2022-10-11T07:46:37.933Z,100.00
2022-10-11T07:49:05.509Z,100.00
2022-10-11T07:51:33.349Z,100.00
2022-10-11T07:54:07.539Z,100.00
2022-10-11T07:56:36.897Z,100.00
2022-10-11T07:59:04.518Z,100.00
2022-10-11T08:01:33.072Z,100.00
2022-10-11T08:04:00.849Z,100.00
2022-10-11T08:06:32.431Z,100.00
2022-10-11T08:09:02.233Z,100.00
2022-10-11T08:11:37.650Z,100.00
2022-10-11T08:14:11.116Z,100.00
2022-10-11T08:16:40.257Z,100.00
2022-10-11T08:19:07.949Z,100.00
2022-10-11T08:21:35.929Z,100.00
2022-10-11T08:24:05.442Z,100.00
2022-10-11T08:26:34.253Z,100.00
2022-10-11T08:29:05.228Z,100.00
2022-10-11T08:31:35.346Z,100.00
2022-10-11T08:34:02.814Z,100.00
2022-10-11T08:36:30.271Z,100.00
2022-10-11T08:38:58.696Z,100.00
2022-10-11T08:41:41.293Z,100.00
2022-10-11T08:44:26.752Z,99.95
2022-10-11T08:47:30.106Z,100.00
2022-10-11T08:49:59.535Z,100.00
2022-10-11T08:52:51.177Z,100.00
2022-10-11T08:55:43.947Z,99.27
2022-10-11T08:58:18.548Z,98.73
2022-10-11T09:00:50.293Z,98.64
2022-10-11T09:03:32.500Z,99.20
2022-10-11T09:06:28.121Z,98.42
2022-10-11T09:09:21.834Z,98.00
2022-10-11T09:12:05.459Z,97.64
2022-10-11T09:14:48.032Z,97.57
2022-10-11T09:18:04.162Z,96.96
2022-10-11T09:21:25.457Z,96.10
2022-10-11T09:24:13.523Z,95.84
2022-10-11T09:26:56.083Z,95.10
2022-10-11T09:29:58.336Z,94.51
2022-10-11T09:32:40.165Z,94.42
2022-10-11T09:35:20.971Z,93.35
2022-10-11T09:37:59.149Z,92.72
2022-10-11T09:41:01.763Z,91.62
2022-10-11T09:43:29.644Z,91.35
2022-10-11T09:45:57.048Z,91.28
2022-10-11T09:48:33.077Z,90.99
2022-10-11T09:51:12.210Z,90.56
2022-10-11T09:54:14.225Z,90.03
2022-10-11T09:56:46.050Z,89.78
2022-10-11T09:59:30.288Z,88.10
2022-10-11T10:02:21.094Z,87.01
2022-10-11T10:05:18.323Z,85.38
2022-10-11T10:08:09.583Z,84.89
2022-10-11T10:10:43.166Z,84.73
2022-10-11T10:13:25.543Z,83.44
2022-10-11T10:15:57.860Z,83.70
2022-10-11T10:18:42.458Z,83.93
2022-10-11T10:21:14.933Z,83.35
2022-10-11T10:23:43.305Z,83.64
2022-10-11T10:26:24.279Z,83.59
2022-10-11T10:29:10.941Z,82.80
2022-10-11T10:34:58.658Z,81.13
2022-10-11T10:37:45.746Z,79.91
2022-10-11T10:40:22.764Z,80.63
2022-10-11T10:42:50.870Z,79.20
2022-10-11T10:45:24.812Z,79.58
2022-10-11T10:49:18.771Z,79.00
2022-10-11T10:51:39.553Z,79.21
2022-10-11T10:54:31.229Z,78.55
2022-10-11T10:57:05.361Z,78.02
2022-10-11T10:59:51.590Z,76.51
2022-10-11T11:02:48.517Z,75.93
2022-10-11T11:05:48.440Z,76.33
2022-10-11T11:08:25.238Z,75.37
2022-10-11T11:11:40.771Z,75.52
2022-10-11T11:14:49.808Z,75.12
2022-10-11T11:17:29.552Z,75.21
2022-10-11T11:20:21.171Z,74.37
2022-10-11T11:23:06.783Z,74.29
2022-10-11T11:25:56.082Z,73.38
2022-10-11T11:28:49.879Z,73.41
2022-10-11T11:31:51.911Z,72.24
2022-10-11T11:34:26.630Z,74.00
2022-10-11T11:37:20.797Z,72.31
2022-10-11T11:39:52.597Z,72.96
2022-10-11T11:42:55.611Z,72.55
2022-10-11T11:45:29.570Z,70.99
2022-10-11T11:48:10.594Z,71.46
2022-10-11T11:50:43.810Z,72.30
2022-10-11T11:53:35.523Z,71.44
2022-10-11T11:56:31.725Z,71.82
2022-10-11T11:59:27.038Z,71.54
2022-10-11T12:02:15.484Z,71.14
2022-10-11T12:04:45.977Z,70.86
2022-10-11T12:07:19.487Z,69.71
2022-10-11T12:09:52.730Z,69.81
2022-10-11T12:12:37.535Z,67.54
2022-10-11T12:15:26.649Z,67.44
2022-10-11T12:17:57.373Z,67.15
2022-10-11T12:20:37.931Z,67.50
2022-10-11T12:23:28.120Z,68.10
2022-10-11T12:26:29.460Z,67.05
2022-10-11T12:29:18.274Z,66.60
2022-10-11T12:32:14.097Z,66.11
2022-10-11T12:34:45.080Z,64.85
2022-10-11T12:37:18.984Z,65.88
2022-10-11T12:39:49.278Z,65.96
2022-10-11T12:42:36.828Z,65.02
2022-10-11T12:45:13.207Z,63.40
2022-10-11T12:47:54.115Z,61.47
2022-10-11T12:50:37.524Z,62.23
2022-10-11T12:53:28.293Z,61.96
2022-10-11T12:56:07.345Z,61.23
2022-10-11T12:58:46.289Z,62.04
2022-10-11T13:01:25.249Z,61.18
2022-10-11T13:04:10.946Z,59.56
2022-10-11T13:06:50.290Z,60.13
2022-10-11T13:09:29.714Z,60.83
2022-10-11T13:12:19.287Z,61.10
2022-10-11T13:15:09.108Z,60.20
2022-10-11T13:17:39.867Z,60.82
2022-10-11T13:20:17.476Z,61.27
2022-10-11T13:22:51.521Z,62.78
2022-10-11T13:25:23.656Z,62.13
2022-10-11T13:27:54.463Z,61.46
2022-10-11T13:30:31.724Z,61.80
2022-10-11T13:33:01.652Z,62.11
2022-10-11T13:35:34.314Z,61.96
2022-10-11T13:38:02.997Z,62.54
2022-10-11T13:40:31.780Z,62.51
2022-10-11T13:43:00.323Z,62.66
2022-10-11T13:45:32.682Z,62.93
2022-10-11T13:48:00.336Z,63.14
2022-10-11T13:50:35.349Z,63.25
2022-10-11T13:53:11.521Z,63.33
2022-10-11T13:55:41.984Z,63.55
2022-10-11T13:58:19.091Z,63.88
2022-10-11T14:01:00.073Z,64.10
2022-10-11T14:04:02.631Z,64.42
2022-10-11T14:06:56.171Z,64.61
2022-10-11T14:09:34.683Z,64.65
2022-10-11T14:12:30.883Z,64.82
2022-10-11T14:15:05.153Z,64.82
2022-10-11T14:17:44.137Z,64.90
2022-10-11T14:20:29.533Z,64.32
2022-10-11T14:23:00.090Z,63.85
2022-10-11T14:25:28.622Z,63.13
2022-10-11T14:27:56.290Z,62.85
2022-10-11T14:30:27.641Z,62.62
2022-10-11T14:32:59.334Z,63.76
2022-10-11T14:35:32.788Z,62.59
2022-10-11T14:38:00.635Z,62.56
2022-10-11T14:40:30.999Z,62.45
2022-10-11T14:42:58.722Z,62.44
2022-10-11T14:45:26.166Z,62.33
2022-10-11T14:47:53.592Z,62.05
2022-10-11T14:50:32.546Z,61.50
2022-10-11T14:53:00.206Z,61.32
2022-10-11T14:55:29.035Z,61.12
2022-10-11T14:57:56.978Z,61.53
2022-10-11T15:00:28.159Z,61.63
2022-10-11T15:02:57.135Z,61.46
2022-10-11T15:05:32.811Z,61.26
2022-10-11T15:08:06.645Z,60.48
2022-10-11T15:10:38.526Z,60.26
2022-10-11T15:13:07.422Z,59.59
2022-10-11T15:15:40.563Z,59.63
2022-10-11T15:18:13.336Z,59.34
2022-10-11T15:20:44.917Z,58.73
2022-10-11T15:23:12.678Z,59.97
2022-10-11T15:25:41.754Z,58.74
2022-10-11T15:28:25.720Z,58.18
2022-10-11T15:30:54.521Z,58.01
2022-10-11T15:33:23.013Z,57.41
2022-10-11T15:35:50.448Z,58.09
2022-10-11T15:38:25.609Z,58.49
2022-10-11T15:40:54.098Z,58.45
2022-10-11T15:43:24.742Z,58.52
2022-10-11T15:45:53.071Z,57.50
2022-10-11T15:48:22.618Z,57.96
2022-10-11T15:50:50.918Z,58.50
2022-10-11T15:53:28.406Z,58.29
2022-10-11T15:56:01.515Z,58.07
2022-10-11T15:58:36.227Z,58.16
2022-10-11T16:01:11.608Z,58.50
2022-10-11T16:03:39.653Z,58.44
2022-10-11T16:06:08.359Z,58.93
2022-10-11T16:08:36.673Z,59.43
2022-10-11T16:11:07.098Z,59.63
2022-10-11T16:13:35.531Z,59.82
2022-10-11T16:16:06.921Z,60.57
2022-10-11T16:18:36.302Z,60.86
2022-10-11T16:21:13.387Z,61.14
2022-10-11T16:23:40.977Z,61.68
2022-10-11T16:26:13.640Z,61.63
2022-10-11T16:28:41.960Z,61.66
2022-10-11T16:31:14.698Z,61.48
2022-10-11T16:33:48.222Z,61.84
2022-10-11T16:36:36.969Z,62.05
2022-10-11T16:39:16.297Z,62.41
2022-10-11T16:41:44.890Z,62.76
2022-10-11T16:44:19.112Z,63.20
2022-10-11T16:46:48.567Z,63.40
2022-10-11T16:49:25.792Z,63.43
2022-10-11T16:51:57.012Z,63.75
2022-10-11T16:54:30.244Z,64.34
2022-10-11T16:56:59.165Z,64.21
2022-10-11T16:59:27.059Z,64.58
2022-10-11T17:01:55.566Z,64.82
2022-10-11T17:04:23.773Z,65.26
2022-10-11T17:06:51.692Z,65.75
2022-10-11T17:09:21.171Z,66.27
2022-10-11T17:11:48.597Z,65.98
2022-10-11T17:14:16.547Z,66.15
2022-10-11T17:16:44.977Z,66.53
2022-10-11T17:19:15.520Z,66.49
2022-10-11T17:21:43.155Z,66.81
2022-10-11T17:24:10.682Z,67.13
2022-10-11T17:26:38.392Z,67.42
2022-10-11T17:29:05.899Z,67.73
2022-10-11T17:31:33.341Z,68.24
2022-10-11T17:34:01.329Z,68.02
2022-10-11T17:36:34.589Z,68.37
2022-10-11T17:39:07.683Z,68.71
2022-10-11T17:41:36.217Z,68.88
2022-10-11T17:44:04.653Z,69.50
2022-10-11T17:46:32.760Z,69.63
2022-10-11T17:49:04.746Z,69.85
2022-10-11T17:51:34.594Z,70.02
2022-10-11T17:54:02.808Z,70.44
2022-10-11T17:56:35.209Z,70.71
2022-10-11T17:59:05.879Z,71.22
2022-10-11T18:01:33.520Z,71.00
2022-10-11T18:04:04.866Z,70.76
2022-10-11T18:06:39.031Z,70.96
2022-10-11T18:09:07.204Z,71.67
2022-10-11T18:11:35.105Z,71.87
2022-10-11T18:14:05.168Z,72.32
2022-10-11T18:16:33.273Z,72.26
2022-10-11T18:19:04.519Z,72.11
2022-10-11T18:21:34.676Z,72.87
2022-10-11T18:24:08.028Z,73.60
2022-10-11T18:26:35.478Z,73.53
2022-10-11T18:29:04.603Z,73.71
2022-10-11T18:31:34.982Z,73.89
2022-10-11T18:34:05.480Z,73.78
2022-10-11T18:36:33.217Z,74.01
2022-10-11T18:39:06.256Z,73.88
2022-10-11T18:41:35.696Z,74.28
2022-10-11T18:44:07.296Z,74.58
2022-10-11T18:46:36.352Z,74.95
2022-10-11T18:49:04.851Z,73.71
2022-10-11T18:51:39.801Z,74.94
2022-10-11T18:54:10.931Z,75.01
2022-10-11T18:56:39.753Z,74.71
2022-10-11T18:59:08.180Z,74.87
2022-10-11T19:01:41.401Z,75.59
2022-10-11T19:04:11.167Z,75.21
2022-10-11T19:06:43.493Z,75.67
2022-10-11T19:09:17.644Z,75.37
2022-10-11T19:11:45.042Z,75.51
2022-10-11T19:14:16.395Z,75.62
2022-10-11T19:16:49.557Z,75.46
2022-10-11T19:19:20.394Z,76.50
2022-10-11T19:21:48.754Z,75.80
2022-10-11T19:24:20.374Z,76.17
2022-10-11T19:26:48.638Z,76.03
2022-10-11T19:29:20.002Z,76.25
2022-10-11T19:31:55.141Z,76.46
2022-10-11T19:34:27.403Z,76.78
2022-10-11T19:36:56.446Z,76.84
2022-10-11T19:39:25.422Z,76.59
2022-10-11T19:41:52.927Z,76.70
2022-10-11T19:44:20.632Z,76.68
2022-10-11T19:46:52.461Z,77.83
2022-10-11T19:49:24.808Z,77.48
2022-10-11T19:51:53.569Z,77.31
2022-10-11T19:54:21.156Z,77.63
2022-10-11T19:56:48.654Z,78.35
2022-10-11T19:59:16.459Z,77.88
2022-10-11T20:01:48.104Z,78.03
2022-10-11T20:04:50.976Z,77.96
2022-10-11T20:07:09.363Z,77.62
2022-10-11T20:09:36.910Z,77.53
2022-10-11T20:12:04.676Z,78.49
2022-10-11T20:14:32.450Z,78.08
2022-10-11T20:16:59.876Z,78.63
2022-10-11T20:19:31.176Z,78.64
2022-10-11T20:22:01.164Z,78.56
2022-10-11T20:24:32.722Z,78.56
2022-10-11T20:27:03.976Z,78.46
2022-10-11T20:29:31.659Z,79.06
2022-10-11T20:31:59.123Z,79.50
2022-10-11T20:34:27.633Z,79.14
2022-10-11T20:36:55.108Z,78.88
2022-10-11T20:39:23.605Z,79.47
2022-10-11T20:41:51.112Z,79.74
2022-10-11T20:44:18.518Z,79.58
2022-10-11T20:46:46.903Z,79.53
2022-10-11T20:49:14.646Z,79.77
2022-10-11T20:51:42.611Z,80.42
2022-10-11T20:54:12.269Z,80.24
2022-10-11T20:56:40.374Z,80.04
2022-10-11T20:59:08.396Z,80.11
2022-10-11T21:01:40.272Z,80.73
2022-10-11T21:04:14.731Z,80.61
2022-10-11T21:06:42.233Z,80.71
2022-10-11T21:09:13.990Z,80.75
2022-10-11T21:11:44.147Z,80.85
2022-10-11T21:14:11.563Z,81.38
2022-10-11T21:16:39.097Z,81.12
2022-10-11T21:19:06.644Z,81.22
2022-10-11T21:21:34.618Z,81.31
2022-10-11T21:24:03.292Z,81.44
2022-10-11T21:26:31.288Z,81.61
2022-10-11T21:29:03.903Z,81.43
2022-10-11T21:31:34.285Z,81.99
2022-10-11T21:34:03.237Z,82.17
2022-10-11T21:36:30.964Z,82.20
2022-10-11T21:38:58.352Z,82.25
2022-10-11T21:41:29.999Z,82.33
2022-10-11T21:43:58.820Z,82.30
2022-10-11T21:46:54.475Z,82.46
2022-10-11T21:49:20.134Z,82.29
2022-10-11T21:51:47.602Z,82.24
2022-10-11T21:54:15.254Z,82.37
2022-10-11T21:56:42.929Z,82.46
2022-10-11T21:59:12.636Z,82.51
2022-10-11T22:01:41.742Z,82.38
2022-10-11T22:04:11.425Z,82.51
2022-10-11T22:06:39.418Z,82.63
2022-10-11T22:09:08.807Z,82.98
2022-10-11T22:11:37.217Z,82.69
2022-10-11T22:14:04.968Z,82.88
2022-10-11T22:16:34.728Z,83.03
2022-10-11T22:19:02.537Z,82.96
2022-10-11T22:21:30.012Z,82.84
2022-10-11T22:23:57.494Z,83.07
2022-10-11T22:26:30.564Z,82.87
2022-10-11T22:29:00.216Z,83.40
2022-10-11T22:31:29.361Z,83.17
2022-10-11T22:33:59.747Z,83.61
2022-10-11T22:36:30.619Z,83.66
2022-10-11T22:38:59.118Z,84.04
2022-10-11T22:41:26.628Z,83.98
2022-10-11T22:43:54.083Z,84.02
2022-10-11T22:46:21.534Z,84.12
2022-10-11T22:48:49.009Z,84.11
2022-10-11T22:51:17.124Z,83.96
2022-10-11T22:53:44.862Z,84.12
2022-10-11T22:56:12.275Z,84.11
2022-10-11T22:58:40.641Z,84.35
2022-10-11T23:01:11.059Z,84.24
2022-10-11T23:03:38.916Z,84.63
2022-10-11T23:06:06.497Z,84.22
2022-10-11T23:08:34.050Z,84.50
2022-10-11T23:11:07.279Z,84.71
2022-10-11T23:13:35.187Z,84.20
2022-10-11T23:16:09.245Z,84.52
2022-10-11T23:18:37.532Z,84.85
2022-10-11T23:21:07.129Z,84.62
2022-10-11T23:23:35.384Z,84.35
2022-10-11T23:26:10.660Z,84.47
2022-10-11T23:28:38.314Z,84.89
2022-10-11T23:31:16.506Z,85.59
2022-10-11T23:33:46.889Z,85.02
2022-10-11T23:36:22.134Z,85.19
2022-10-11T23:38:54.092Z,85.94
2022-10-11T23:41:24.210Z,85.52
2022-10-11T23:43:51.912Z,85.86
2022-10-11T23:46:19.430Z,85.96
2022-10-11T23:48:48.283Z,86.33
2022-10-11T23:51:16.316Z,85.66
2022-10-11T23:53:43.781Z,86.11
2022-10-11T23:56:11.896Z,85.81
2022-10-11T23:58:39.561Z,86.45
